Rainbow Heights (1233, RB1) Station Data

Red Flag Warning: No
Fire Weather Zone: 250
SDGE Region: North East
Lat/Lon: 33.414/-117.126

Observations

Time Wind Speed/Gust Temp(F) RH Fuel Moist Fuel Temp(F) Dewpt(F) Tmax(F) Tmin(F) Accum Precip 10-min Precip SL Press(mb)
4/26 2:50am 239 4 G 5 54° 69% - - 44° 56.6° 53.5° - - -
4/26 2:40am 222 2 G 5 54° 69% - - 44° 56.6° 53.5° - - -
4/26 2:30am 213 2 G 4 54° 69% - - 44° 56.6° 53.7° - - -
4/26 2:20am 226 2 G 3 54° 69% - - 44° 56.6° 53.8° - - -
4/26 2:10am 207 2 G 3 55° 65% - - 44° 56.6° 54.2° - - -
4/26 2:00am 263 0 G 2 56° 63% - - 44° 56.6° 54.2° - - -
4/26 1:50am 277 2 G 3 56° 64% - - 44° 56.6° 54.2° - - -
4/26 1:40am 287 1 G 2 55° 65% - - 44° 56.6° 54.2° - - -
4/26 1:30am 230 2 G 3 55° 66% - - 44° 56.6° 54.2° - - -
4/26 1:20am 263 4 G 7 55° 66% - - 44° 56.6° 54.2° - - -
4/26 1:10am 354 1 G 2 56° 63% - - 43° 56.6° 54.6° - - -
4/26 1:00am 344 1 G 2 55° 64% - - 43° 56.6° 54.6° - - -
4/26 12:50am 22 0 G 1 55° 64% - - 43° 56.6° 54.6° - - -
4/26 12:40am 94 0 G 1 55° 64% - - 43° 56.6° 54.7° - - -
4/26 12:30am 131 1 G 1 55° 65% - - 44° 56.6° 55° - - -
4/26 12:20am 162 1 G 2 56° 64% - - 44° 56.6° 55.3° - - -
4/26 12:10am 243 2 G 3 56° 63% - - 44° 56.6° 55.7° - - -
4/26 12:00am 231 2 G 5 56° 61% - - 43° 66.1° 51.2° - - -
4/25 11:40pm 240 0 G 2 56° 60% - - 42° 66.1° 51.2° - - -
4/25 11:30pm 227 2 G 3 56° 59% - - 42° 66.1° 51.2° - - -
4/25 11:20pm 185 0 G 1 57° 59% - - 42° 66.1° 51.2° - - -
4/25 11:10pm 150 1 G 2 57° 59% - - 43° 66.1° 51.2° - - -
4/25 11:00pm 104 1 G 2 57° 59% - - 43° 66.1° 51.2° - - -
4/25 10:50pm 121 1 G 3 57° 59% - - 43° 66.1° 51.2° - - -
4/25 10:40pm 98 1 G 3 56° 60% - - 42° 66.1° 51.2° - - -
4/25 10:30pm 74 1 G 3 55° 66% - - 44° 66.1° 51.2° - - -
4/25 10:20pm 71 1 G 2 55° 72% - - 46° 66.1° 51.2° - - -
4/25 10:10pm 149 1 G 2 54° 75% - - 47° 66.1° 51.2° - - -
4/25 9:50pm 171 2 G 3 54° 77% - - 47° 66.1° 51.2° - - -
4/25 9:40pm 175 3 G 5 55° 75% - - 47° 66.1° 51.2° - - -
4/25 9:20pm 172 3 G 4 55° 73% - - 46° 66.1° 51.2° - - -
4/25 9:00pm 190 4 G 7 55° 76% - - 47° 66.1° 51.2° - - -
4/25 8:50pm 201 3 G 6 55° 75% - - 47° 66.1° 51.2° - - -
4/25 8:40pm 209 4 G 7 55° 74% - - 47° 66.1° 51.2° - - -
4/25 8:30pm 188 2 G 6 55° 71% - - 46° 66.1° 51.2° - - -
4/25 8:20pm 200 3 G 7 55° 67% - - 45° 66.1° 51.2° - - -
4/25 8:10pm 240 7 G 8 55° 69% - - 45° 66.1° 51.2° - - -
4/25 8:00pm 240 7 G 10 55° 68% - - 45° 66.1° 51.2° - - -
4/25 7:50pm 238 6 G 8 56° 67% - - 45° 66.1° 51.2° - - -
4/25 7:40pm 231 6 G 8 56° 65% - - 44° 66.1° 51.2° - - -
4/25 7:30pm 222 6 G 8 57° 63% - - 44° 66.1° 51.2° - - -
4/25 7:20pm 220 5 G 8 57° 60% - - 43° 66.1° 51.2° - - -
4/25 7:00pm 180 4 G 6 58° 57% - - 43° 66.1° 51.2° - - -
4/25 6:40pm 196 3 G 7 59° 56% - - 44° 66.1° 51.2° - - -
4/25 6:20pm 200 5 G 9 60° 57% - - 45° 66.1° 51.2° - - -
4/25 6:00pm 198 5 G 11 60° 62% - - 47° 66.1° 51.2° - - -
4/25 5:50pm 195 5 G 10 61° 63% - - 48° 66.1° 51.2° - - -
4/25 5:40pm 188 5 G 9 61° 65% - - 49° 66.1° 51.2° - - -
4/25 5:30pm 200 5 G 11 62° 65% - - 50° 66.1° 51.2° - - -
4/25 5:20pm 185 4 G 8 62° 64% - - 50° 66.1° 51.2° - - -
4/25 5:10pm 192 4 G 8 62° 65% - - 50° 66.1° 51.2° - - -
4/25 5:00pm 197 4 G 8 62° 64% - - 50° 66.1° 51.2° - - -
4/25 4:50pm 183 4 G 10 62° 63% - - 49° 66.1° 51.2° - - -
4/25 4:40pm 192 5 G 9 62° 61% - - 49° 66.1° 51.2° - - -
4/25 4:30pm 181 5 G 12 63° 61% - - 49° 66.1° 51.2° - - -
4/25 4:20pm 219 5 G 10 63° 61% - - 49° 66.1° 51.2° - - -
4/25 4:10pm 213 4 G 10 62° 62% - - 49° 66.1° 51.2° - - -
4/25 4:00pm 212 5 G 11 62° 63% - - 49° 66.1° 51.2° - - -
4/25 3:50pm 222 5 G 12 62° 61% - - 49° 66.1° 51.2° - - -
4/25 3:40pm 197 6 G 11 62° 62% - - 49° 66.1° 51.2° - - -
4/25 3:30pm 234 4 G 9 62° 62% - - 49° 66.1° 51.2° - - -
4/25 3:20pm 243 5 G 8 62° 63% - - 49° 66.1° 51.2° - - -
4/25 3:10pm 217 4 G 8 62° 62% - - 49° 66.1° 51.2° - - -
4/25 3:00pm 210 5 G 11 63° 61% - - 49° 66.1° 51.2° - - -
4/25 2:50pm 231 6 G 15 62° 63% - - 49° 66.1° 51.2° - - -
4/25 2:40pm 245 6 G 12 62° 63% - - 49° 66.1° 51.2° - - -
4/25 2:30pm 226 4 G 12 63° 62% - - 50° 66.1° 51.2° - - -
4/25 2:20pm 189 5 G 11 63° 62% - - 50° 66.1° 51.2° - - -
4/25 2:10pm 219 4 G 9 62° 62% - - 49° 66.1° 51.2° - - -
4/25 2:00pm 215 5 G 11 63° 61% - - 50° 66.1° 51.2° - - -
4/25 1:50pm 195 4 G 10 64° 60% - - 50° 66.1° 51.2° - - -
4/25 1:40pm 219 3 G 10 63° 61% - - 49° 66.1° 51.2° - - -
4/25 1:30pm 213 5 G 11 63° 61% - - 49° 66.1° 51.2° - - -
4/25 1:20pm 212 4 G 14 63° 62% - - 50° 66.1° 51.2° - - -
4/25 1:10pm 192 4 G 11 63° 60% - - 49° 66.1° 51.2° - - -
4/25 1:00pm 219 5 G 13 64° 59% - - 49° 66.1° 51.2° - - -
4/25 12:50pm 189 4 G 11 64° 60% - - 50° 66.1° 51.2° - - -
4/25 12:40pm 198 5 G 11 63° 61% - - 49° 63.9° 51.2° - - -
4/25 12:30pm 212 6 G 13 62° 63% - - 49° 62.9° 51.2° - - -
4/25 12:20pm 214 5 G 12 62° 64% - - 50° 62.6° 51.2° - - -
4/25 12:10pm 213 6 G 14 62° 65% - - 50° 62.5° 51.2° - - -
4/25 12:00pm 224 5 G 14 61° 67% - - 50° 62.2° 51.2° - - -
4/25 11:50am 217 6 G 12 60° 70% - - 51° 61.9° 51.2° - - -
4/25 11:40am 238 5 G 9 60° 71% - - 51° 61.9° 51.2° - - -
4/25 11:30am 218 3 G 10 61° 70% - - 51° 61.9° 51.2° - - -
4/25 11:20am 213 4 G 9 60° 71% - - 51° 61.9° 51.2° - - -
4/25 11:10am 199 3 G 7 60° 69% - - 50° 61.9° 51.2° - - -
4/25 11:00am 188 6 G 10 60° 68% - - 49° 60.5° 51.2° - - -
4/25 10:50am 206 3 G 9 60° 67% - - 49° 60.5° 51.2° - - -
4/25 10:40am 182 6 G 12 59° 67% - - 49° 60.2° 51.2° - - -
4/25 10:30am 175 6 G 11 59° 69% - - 49° 59.6° 51.2° - - -
4/25 10:20am 187 4 G 12 59° 70% - - 49° 59.6° 51.2° - - -
4/25 10:10am 158 5 G 9 59° 70% - - 49° 59.6° 51.2° - - -
4/25 10:00am 154 6 G 13 58° 72% - - 49° 59.1° 51.2° - - -
4/25 9:50am 187 5 G 9 58° 73% - - 49° 58.9° 51.2° - - -
4/25 9:40am 183 4 G 10 57° 76% - - 50° 58.4° 51.2° - - -
4/25 9:30am 196 5 G 9 57° 77% - - 50° 57.5° 51.2° - - -
4/25 9:20am 168 5 G 10 56° 79% - - 50° 57° 51.2° - - -
4/25 9:10am 157 5 G 9 55° 83% - - 50° 56.3° 51.2° - - -
4/25 9:00am 181 5 G 10 55° 84% - - 50° 55.9° 51.2° - - -
4/25 8:50am 193 5 G 10 55° 84% - - 50° 55.9° 51.2° - - -
4/25 8:40am 145 6 G 9 55° 86% - - 50° 55.2° 51.2° - - -
4/25 8:30am 149 7 G 13 54° 87% - - 50° 54.6° 51.2° - - -
4/25 8:20am 157 5 G 12 54° 87% - - 50° 54.6° 51.2° - - -
4/25 8:10am 138 7 G 10 53° 88% - - 50° 54.5° 51.2° - - -
4/25 8:00am 133 7 G 11 54° 87% - - 50° 54.5° 51.2° - - -
4/25 7:50am 143 7 G 11 53° 89% - - 50° 54.1° 51.2° - - -
4/25 7:40am 144 5 G 9 53° 91% - - 50° 53.4° 51.2° - - -
4/25 7:30am 141 6 G 8 52° 91% - - 50° 53° 51.2° - - -
4/25 7:20am 159 5 G 7 52° 92% - - 50° 53° 51.2° - - -
4/25 7:10am 164 4 G 6 52° 92% - - 50° 53° 51.2° - - -
4/25 7:00am 163 4 G 6 52° 92% - - 50° 53° 51.2° - - -
4/25 6:50am 158 5 G 7 52° 93% - - 49° 53° 51.2° - - -
4/25 6:40am 159 5 G 6 52° 93% - - 50° 53° 51.2° - - -
4/25 6:30am 138 5 G 8 52° 93% - - 49° 53° 51.2° - - -
4/25 6:20am 155 5 G 8 52° 92% - - 49° 53° 51.3° - - -
4/25 6:10am 157 5 G 8 52° 92% - - 50° 53° 51.4° - - -
4/25 6:00am 150 4 G 7 52° 92% - - 50° 53° 51.4° - - -
4/25 5:50am 149 4 G 6 52° 92% - - 50° 53° 51.4° - - -
4/25 5:40am 136 5 G 7 52° 92% - - 50° 53° 51.4° - - -
4/25 5:30am 147 6 G 8 52° 92% - - 50° 53° 51.4° - - -
4/25 5:20am 146 6 G 8 52° 92% - - 50° 53° 51.4° - - -
4/25 5:10am 140 5 G 8 52° 92% - - 50° 53° 51.4° - - -
4/25 5:00am 144 6 G 9 52° 92% - - 50° 53° 51.4° - - -
4/25 4:50am 142 4 G 6 52° 93% - - 50° 53° 51.4° - - -
4/25 4:40am 140 2 G 4 52° 94% - - 50° 53° 51.4° - - -
4/25 4:30am 164 2 G 6 52° 94% - - 50° 53° 51.4° - - -
4/25 4:20am 145 5 G 7 52° 95% - - 50° 53° 51.4° - - -
4/25 4:10am 142 5 G 8 52° 96% - - 51° 53° 51.4° - - -
4/25 4:00am 158 5 G 9 52° 96% - - 51° 53° 51.6° - - -
4/25 3:50am 156 3 G 6 52° 96% - - 51° 53° 51.6° - - -
4/25 3:40am 156 6 G 9 52° 96% - - 51° 53° 51.6° - - -
4/25 3:30am 154 4 G 7 52° 95% - - 51° 53° 51.7° - - -
4/25 3:20am 150 5 G 7 52° 95% - - 51° 53° 51.7° - - -
4/25 3:10am 154 4 G 7 52° 95% - - 51° 53° 51.7° - - -
4/25 3:00am 165 4 G 7 52° 94% - - 51° 53° 51.7° - - -
4/25 2:50am 167 3 G 5 52° 94% - - 51° 53° 51.7° - - -
4/25 2:40am 195 3 G 5 52° 94% - - 51° 53° 51.7° - - -
4/25 2:30am 169 3 G 5 52° 95% - - 51° 53° 51.7° - - -
4/25 2:20am 200 3 G 6 52° 95% - - 51° 53° 51.7° - - -
4/25 2:10am 206 4 G 8 52° 94% - - 51° 53° 51.7° - - -
4/25 2:00am 207 3 G 7 52° 94% - - 51° 53° 51.7° - - -
4/25 1:50am 215 4 G 7 52° 95% - - 51° 53° 51.7° - - -
4/25 1:40am 197 3 G 6 52° 95% - - 51° 53° 51.8° - - -
4/25 1:30am 170 4 G 6 52° 96% - - 51° 53° 51.8° - - -
4/25 1:20am 156 4 G 8 52° 96% - - 51° 53° 51.8° - - -
4/25 1:10am 158 6 G 10 52° 96% - - 51° 53° 52° - - -
4/25 1:00am 159 5 G 9 52° 96% - - 52° 53° 52.2° - - -
4/25 12:50am 158 5 G 8 53° 97% - - 52° 53° 52.2° - - -
4/25 12:40am 154 4 G 9 53° 97% - - 52° 53° 52.2° - - -
4/25 12:30am 152 5 G 8 52° 97% - - 52° 53° 52.2° - - -
4/25 12:20am 158 4 G 7 52° 96% - - 52° 53° 52.2° - - -
4/25 12:10am 154 7 G 10 52° 96% - - 51° 53° 52.2° - - -
4/25 12:00am 184 3 G 7 52° 96% - - 51° 65.4° 52.2° - - -
4/24 11:50pm 181 4 G 9 53° 96% - - 51° 65.4° 52.3° - - -
4/24 11:40pm 192 6 G 10 53° 96% - - 51° 65.4° 52.3° - - -
4/24 11:30pm 200 6 G 11 53° 96% - - 52° 65.4° 52.4° - - -
4/24 11:20pm 198 5 G 9 53° 96% - - 52° 65.4° 52.4° - - -
4/24 11:10pm 217 3 G 7 53° 95% - - 52° 65.4° 52.4° - - -
4/24 11:00pm 239 5 G 8 53° 95% - - 51° 65.4° 52.4° - - -
4/24 10:50pm 230 5 G 10 53° 95% - - 52° 65.4° 52.4° - - -
4/24 10:40pm 215 3 G 6 53° 94% - - 52° 65.4° 52.4° - - -
4/24 10:30pm 211 4 G 9 53° 94% - - 52° 65.4° 52.4° - - -
4/24 10:20pm 203 3 G 8 53° 94% - - 52° 65.4° 52.4° - - -
4/24 10:10pm 210 4 G 8 53° 94% - - 52° 65.4° 52.4° - - -
4/24 10:00pm 214 4 G 9 53° 94% - - 52° 65.4° 52.4° - - -
4/24 9:50pm 214 5 G 10 53° 93% - - 51° 65.4° 52.4° - - -
4/24 9:40pm 218 4 G 8 54° 93% - - 52° 65.4° 52.4° - - -
4/24 9:30pm 230 4 G 9 54° 92% - - 52° 65.4° 52.4° - - -
4/24 9:20pm 217 4 G 10 54° 92% - - 52° 65.4° 52.4° - - -
4/24 9:10pm 220 3 G 7 54° 92% - - 52° 65.4° 52.4° - - -
4/24 9:00pm 217 4 G 7 54° 93% - - 52° 65.4° 52.4° - - -
4/24 8:50pm 203 4 G 7 54° 92% - - 52° 65.4° 52.4° - - -
4/24 8:40pm 208 5 G 8 55° 91% - - 52° 65.4° 52.4° - - -
4/24 8:30pm 201 5 G 10 55° 89% - - 52° 65.4° 52.4° - - -
4/24 8:20pm 210 5 G 9 55° 90% - - 52° 65.4° 52.4° - - -
4/24 8:10pm 200 6 G 10 55° 90% - - 52° 65.4° 52.4° - - -
4/24 8:00pm 201 4 G 9 55° 90% - - 52° 65.4° 52.4° - - -
4/24 7:50pm 204 4 G 8 55° 89% - - 52° 65.4° 52.4° - - -
4/24 7:40pm 210 4 G 8 55° 88% - - 52° 65.4° 52.4° - - -
4/24 7:30pm 208 5 G 10 56° 86% - - 51° 65.4° 52.4° - - -
4/24 7:20pm 210 5 G 12 56° 84% - - 51° 65.4° 52.4° - - -
4/24 7:10pm 201 6 G 12 56° 83% - - 51° 65.4° 52.4° - - -
4/24 7:00pm 191 6 G 11 57° 83% - - 52° 65.4° 52.4° - - -
4/24 6:50pm 196 4 G 10 57° 81% - - 52° 65.4° 52.4° - - -
4/24 6:40pm 200 4 G 9 57° 81% - - 52° 65.4° 52.4° - - -
4/24 6:30pm 204 3 G 8 58° 81% - - 52° 65.4° 52.4° - - -
4/24 6:20pm 199 4 G 10 58° 79% - - 51° 65.4° 52.4° - - -
4/24 6:10pm 187 4 G 9 59° 77% - - 52° 65.4° 52.4° - - -
4/24 6:00pm 229 5 G 11 58° 77% - - 51° 65.4° 52.4° - - -